createdAt,value
2023-02-10T00:03:14.507Z,47.8
2023-02-10T00:08:14.505Z,55.7
2023-02-10T00:13:14.506Z,50.8
2023-02-10T00:18:14.510Z,52.4
2023-02-10T00:23:14.535Z,58.9
2023-02-10T00:28:14.624Z,52.2
2023-02-10T00:33:14.593Z,56.5
2023-02-10T00:38:14.528Z,53.3
2023-02-10T00:43:14.520Z,59.2
2023-02-10T00:48:14.531Z,55.3
2023-02-10T00:53:14.537Z,56.4
2023-02-10T00:58:14.531Z,56.8
2023-02-10T01:03:14.586Z,60.0
2023-02-10T01:08:14.532Z,56.6
2023-02-10T01:13:14.534Z,59.8
2023-02-10T01:18:14.518Z,61.0
2023-02-10T01:23:14.523Z,61.1
2023-02-10T01:28:14.564Z,56.5
2023-02-10T01:33:14.533Z,63.3
2023-02-10T01:38:14.533Z,64.9
2023-02-10T01:43:14.539Z,63.0
2023-02-10T01:48:14.533Z,60.6
2023-02-10T01:53:14.545Z,60.9
2023-02-10T01:58:14.535Z,69.8
2023-02-10T02:03:14.534Z,67.8
2023-02-10T02:08:14.546Z,67.3
2023-02-10T02:13:14.549Z,72.2
2023-02-10T02:18:14.550Z,69.9
2023-02-10T02:23:14.552Z,70.7
2023-02-10T02:28:14.664Z,72.2
2023-02-10T02:33:14.558Z,65.4
2023-02-10T02:38:14.564Z,69.6
2023-02-10T02:48:14.564Z,69.3
2023-02-10T02:53:14.564Z,72.7
2023-02-10T02:58:14.590Z,73.0
2023-02-10T03:03:14.570Z,67.2
2023-02-10T03:08:14.574Z,68.3
2023-02-10T03:13:14.587Z,67.3
2023-02-10T03:18:14.574Z,68.2
2023-02-10T03:23:14.573Z,63.0
2023-02-10T03:28:14.636Z,69.8
2023-02-10T03:33:14.581Z,63.8
2023-02-10T03:38:14.637Z,67.3
2023-02-10T03:43:14.584Z,67.2
2023-02-10T03:48:14.580Z,67.2
2023-02-10T03:53:14.585Z,68.2
2023-02-10T03:58:14.593Z,65.5
2023-02-10T04:03:14.618Z,69.2
2023-02-10T04:08:14.594Z,69.5
2023-02-10T04:13:14.620Z,72.9
2023-02-10T04:18:14.607Z,71.5
2023-02-10T04:23:14.590Z,70.3
2023-02-10T04:28:14.629Z,71.5
2023-02-10T04:33:14.602Z,68.9
2023-02-10T04:38:14.607Z,68.6
2023-02-10T04:43:14.608Z,71.1
2023-02-10T04:48:14.614Z,71.2
2023-02-10T04:53:14.611Z,69.1
2023-02-10T04:58:14.612Z,80.8
2023-02-10T05:03:14.611Z,73.8
2023-02-10T05:08:14.655Z,72.3
2023-02-10T05:13:14.616Z,77.8
2023-02-10T05:18:14.617Z,77.2
2023-02-10T05:23:14.624Z,76.6
2023-02-10T05:28:14.641Z,79.9
2023-02-10T05:33:14.623Z,95.0
2023-02-10T05:38:14.639Z,119.2
2023-02-10T05:43:14.627Z,156.2
2023-02-10T05:48:14.630Z,159.7
2023-02-10T05:53:14.639Z,143.9
2023-02-10T05:58:14.633Z,175.4
2023-02-10T06:03:14.688Z,163.3
2023-02-10T06:08:14.650Z,150.5
2023-02-10T06:13:14.661Z,128.8
2023-02-10T06:18:14.649Z,134.5
2023-02-10T06:23:14.653Z,151.9
2023-02-10T06:28:14.721Z,116.3
2023-02-10T06:33:14.651Z,219.0
2023-02-10T06:38:14.673Z,159.4
2023-02-10T06:43:14.653Z,194.2
2023-02-10T06:48:14.663Z,139.7
2023-02-10T06:53:14.662Z,186.5
2023-02-10T06:58:14.654Z,172.0
2023-02-10T07:03:14.699Z,137.6
2023-02-10T07:08:14.671Z,177.5
2023-02-10T07:13:14.671Z,145.5
2023-02-10T07:18:14.717Z,150.4
2023-02-10T07:23:15.993Z,143.7
2023-02-10T07:28:14.727Z,139.4
2023-02-10T07:33:14.679Z,139.8
2023-02-10T07:38:14.684Z,178.5
2023-02-10T07:43:14.694Z,146.0
2023-02-10T07:48:14.697Z,131.8
2023-02-10T07:53:14.700Z,126.4
2023-02-10T07:58:14.699Z,133.0
2023-02-10T08:03:14.707Z,139.4
2023-02-10T08:08:14.705Z,131.4
2023-02-10T08:13:14.701Z,122.3
2023-02-10T08:18:14.706Z,135.3
2023-02-10T08:23:14.939Z,122.4
2023-02-10T08:28:14.781Z,132.7
2023-02-10T08:33:14.716Z,114.0
2023-02-10T08:38:14.721Z,126.4
2023-02-10T08:43:14.744Z,100.7
2023-02-10T08:48:14.722Z,113.3
2023-02-10T08:53:14.715Z,110.0
2023-02-10T08:58:14.717Z,107.4
2023-02-10T09:03:14.721Z,111.7
2023-02-10T09:08:14.727Z,104.0
2023-02-10T09:13:14.729Z,92.3
2023-02-10T09:18:14.726Z,114.8
2023-02-10T09:23:14.730Z,97.7
2023-02-10T09:28:14.786Z,101.6
2023-02-10T09:33:14.742Z,101.8
2023-02-10T09:38:14.744Z,93.3
2023-02-10T09:43:14.876Z,92.2
2023-02-10T09:48:14.753Z,89.2
2023-02-10T09:53:14.751Z,85.1
2023-02-10T09:58:14.754Z,78.8
2023-02-10T10:03:14.765Z,79.3
2023-02-10T10:08:14.766Z,85.2
2023-02-10T10:13:14.764Z,76.0
2023-02-10T10:18:14.770Z,68.9
2023-02-10T10:23:14.772Z,68.0
2023-02-10T10:28:14.833Z,67.4
2023-02-10T10:33:14.784Z,64.0
2023-02-10T10:38:14.786Z,74.6
2023-02-10T10:43:14.798Z,71.6
2023-02-10T10:48:14.794Z,57.0
2023-02-10T10:53:14.796Z,60.4
2023-02-10T10:58:14.800Z,48.9
2023-02-10T11:03:14.799Z,54.8
2023-02-10T11:08:14.816Z,51.6
2023-02-10T11:13:14.828Z,44.9
2023-02-10T11:18:14.808Z,40.7
2023-02-10T11:23:14.824Z,41.2
2023-02-10T11:28:14.851Z,40.3
2023-02-10T11:33:14.820Z,35.6
2023-02-10T11:38:14.736Z,36.6
2023-02-10T11:43:14.735Z,38.0
2023-02-10T11:48:14.733Z,34.7
2023-02-10T11:53:14.738Z,28.7
2023-02-10T11:58:14.742Z,32.8
2023-02-10T12:03:14.743Z,36.1
2023-02-10T12:08:14.745Z,32.0
2023-02-10T12:13:14.749Z,26.7
2023-02-10T12:18:14.855Z,29.9
2023-02-10T12:23:14.861Z,25.1
2023-02-10T12:28:14.789Z,21.2
2023-02-10T12:33:14.753Z,23.8
2023-02-10T12:38:14.762Z,27.5
2023-02-10T12:43:14.758Z,29.6
2023-02-10T12:48:14.760Z,25.8
2023-02-10T12:53:14.771Z,21.7
2023-02-10T12:58:14.780Z,26.1
2023-02-10T13:03:14.866Z,27.1
2023-02-10T13:08:14.872Z,35.2
2023-02-10T13:13:14.878Z,34.1
2023-02-10T13:18:14.879Z,34.3
2023-02-10T13:23:14.880Z,39.0
2023-02-10T13:28:14.797Z,37.2
2023-02-10T13:33:14.890Z,40.5
2023-02-10T13:38:14.886Z,37.7
2023-02-10T13:48:14.905Z,32.9
2023-02-10T13:53:14.928Z,34.4
2023-02-10T13:58:14.907Z,34.4
2023-02-10T14:03:14.904Z,38.7
2023-02-10T14:08:14.907Z,36.7
2023-02-10T14:13:14.916Z,38.8
2023-02-10T14:18:14.910Z,39.3
2023-02-10T14:23:14.915Z,39.0
2023-02-10T14:28:14.962Z,43.4
2023-02-10T14:33:14.919Z,38.6
2023-02-10T14:38:14.920Z,37.4
2023-02-10T14:43:14.924Z,35.5
2023-02-10T14:48:14.928Z,32.9
2023-02-10T14:53:14.932Z,36.2
2023-02-10T14:58:14.940Z,34.2
2023-02-10T15:03:14.949Z,32.5
2023-02-10T15:08:14.924Z,30.7
2023-02-10T15:13:14.838Z,28.6
2023-02-10T15:18:14.888Z,30.1
2023-02-10T15:23:25.503Z,31.5
2023-02-10T15:28:14.916Z,35.1
2023-02-10T15:38:14.833Z,36.5
2023-02-10T15:43:14.842Z,35.4
2023-02-10T15:48:14.844Z,32.3
2023-02-10T15:53:14.937Z,33.5
2023-02-10T15:58:14.841Z,31.4
2023-02-10T16:03:14.963Z,37.5
2023-02-10T16:08:14.950Z,36.1
2023-02-10T16:13:14.970Z,33.8
2023-02-10T16:18:14.955Z,35.0
2023-02-10T16:23:14.944Z,36.9
2023-02-10T16:28:14.997Z,39.3
2023-02-10T16:33:14.866Z,37.9
2023-02-10T16:38:18.151Z,32.7
2023-02-10T16:43:15.042Z,30.9
2023-02-10T16:48:14.984Z,28.6
2023-02-10T16:53:14.985Z,30.7
2023-02-10T16:58:15.003Z,31.2
2023-02-10T17:03:15.036Z,29.5
2023-02-10T17:08:14.995Z,27.5
2023-02-10T17:13:15.002Z,31.0
2023-02-10T17:18:15.008Z,26.5
2023-02-10T17:23:15.041Z,29.0
2023-02-10T17:28:15.059Z,29.5
2023-02-10T17:33:15.021Z,29.3
2023-02-10T17:38:15.017Z,33.7
2023-02-10T17:43:15.024Z,33.8
2023-02-10T17:48:15.021Z,33.4
2023-02-10T17:53:15.018Z,33.4
2023-02-10T17:58:15.023Z,37.4
2023-02-10T18:03:15.023Z,35.9
2023-02-10T18:08:15.039Z,34.1
2023-02-10T18:13:15.036Z,37.5
2023-02-10T18:18:15.033Z,35.6
2023-02-10T18:23:15.041Z,37.6
2023-02-10T18:28:15.126Z,36.6
2023-02-10T18:33:15.049Z,39.5
2023-02-10T18:38:15.047Z,36.7
2023-02-10T18:43:15.056Z,38.7
2023-02-10T18:48:15.041Z,35.9
2023-02-10T18:53:15.045Z,37.1
2023-02-10T18:58:15.064Z,36.6
2023-02-10T19:08:15.055Z,45.7
2023-02-10T19:13:15.061Z,38.9
2023-02-10T19:18:15.073Z,41.8
2023-02-10T19:23:15.076Z,39.1
2023-02-10T19:28:15.133Z,41.2
2023-02-10T19:33:15.094Z,43.4
2023-02-10T19:38:15.087Z,41.2
2023-02-10T19:43:15.072Z,44.7
2023-02-10T19:48:15.084Z,41.4
2023-02-10T19:53:15.077Z,43.8
2023-02-10T19:58:15.076Z,43.2
2023-02-10T20:03:15.172Z,45.0
2023-02-10T20:08:15.100Z,41.6
2023-02-10T20:13:15.084Z,43.1
2023-02-10T20:23:15.094Z,43.1
2023-02-10T20:28:15.141Z,43.5
2023-02-10T20:33:15.113Z,47.0
2023-02-10T20:38:15.117Z,46.4
2023-02-10T20:43:15.108Z,42.2
2023-02-10T20:48:15.132Z,45.2
2023-02-10T20:53:15.116Z,43.5
2023-02-10T20:58:15.126Z,40.1
2023-02-10T21:03:15.166Z,43.2
2023-02-10T21:08:15.135Z,40.5
2023-02-10T21:13:15.124Z,40.9
2023-02-10T21:18:15.128Z,36.4
2023-02-10T21:23:15.130Z,34.5
2023-02-10T21:28:15.194Z,38.5
2023-02-10T21:33:15.141Z,36.1
2023-02-10T21:38:15.138Z,34.5
2023-02-10T21:43:15.143Z,36.9
2023-02-10T21:48:15.141Z,32.0
2023-02-10T21:53:15.152Z,35.2
2023-02-10T21:58:15.143Z,32.4
2023-02-10T22:03:15.232Z,35.6
2023-02-10T22:08:15.155Z,31.9
2023-02-10T22:13:15.158Z,33.0
2023-02-10T22:18:15.157Z,32.7
2023-02-10T22:23:15.162Z,33.7
2023-02-10T22:28:15.194Z,35.9
2023-02-10T22:33:15.173Z,31.1
2023-02-10T22:38:15.168Z,29.5
2023-02-10T22:43:15.305Z,28.2
2023-02-10T22:48:15.174Z,33.2
2023-02-10T22:53:15.173Z,29.3
2023-02-10T23:03:15.309Z,31.1
2023-02-10T23:08:15.201Z,30.5
2023-02-10T23:13:15.183Z,25.8
2023-02-10T23:23:15.188Z,33.0
2023-02-10T23:28:15.237Z,27.9
2023-02-10T23:33:15.235Z,26.9
2023-02-10T23:38:15.204Z,23.7
2023-02-10T23:43:15.204Z,26.1
2023-02-10T23:48:15.205Z,25.1
2023-02-10T23:53:15.213Z,26.0
2023-02-10T23:58:15.223Z,27.1
